< < Back
Terminal Aerodrome Forecast


Current Version              Previous Versions:   1  2  3  4  5  6  7  8  9  

Terminal Aerodrome Forecast

652
FTUS42 KILM 230200 AAA
TAFFLO
TAF AMD
KFLO 230258Z 2303/2324 24006KT P6SM SCT080 SCT100
     FM230600 32007KT P6SM FEW050
     FM231200 01010KT P6SM SKC
     FM231600 34011G18KT P6SM SKC
     FM232200 35009KT P6SM SKC=



Latest METAR

210
SAUS70 KWBC 231400 RRA
MTRFLO
METAR KFLO 231353Z 34007KT 10SM CLR 21/11 A2985 RMK AO2 SLP104
T02110106


USA.gov is the U.S. government's official web portal to all federal, state and local government web resources and services.